Time;durP1;ratioP1;P1;durP2;ratioP2;P2;SDS_P1;SDS_P2;PMS_P1;PMS_P2;Temp;Humidity;BMP_temperature;BMP_pressure;BME280_temperature;BME280_humidity;BME280_pressure;Samples;Min_cycle;Max_cycle;Signal;HPM_P1;HPM_P2
2022/08/15 00:02:06;;;;;;;;;15.00;15.00;;;;;25.61;79.77;100305.00;5106042;27;45254;-66
2022/08/15 00:04:32;;;;;;;;;18.00;15.67;;;;;25.72;80.65;100311.53;5087463;27;45409;-66
2022/08/15 00:06:58;;;;;;;;;16.00;15.67;;;;;25.76;79.24;100304.38;5105855;27;45431;-66
2022/08/15 00:09:24;;;;;;;;;15.67;15.00;;;;;25.83;78.69;100305.03;5098555;27;45409;-66
2022/08/15 00:11:52;;;;;;;;;17.67;16.33;;;;;25.83;78.57;100310.59;5083361;28;45399;-66
2022/08/15 00:14:36;;;;;;;;;17.25;14.00;;;;;25.75;77.90;100297.13;5085268;27;45275;-66
2022/08/15 00:17:09;;;;;;;;;18.50;16.25;;;;;25.81;78.16;100301.66;5085387;27;45289;-66
2022/08/15 00:19:38;;;;;;;;;14.33;14.33;;;;;25.88;77.03;100307.84;5084826;28;45475;-66
2022/08/15 00:22:06;;;;;;;;;16.50;16.00;;;;;25.86;76.61;100296.16;5084650;27;45418;-66
2022/08/15 00:24:33;;;;;;;;;16.25;16.25;;;;;25.90;76.59;100298.16;5085721;27;45369;-66
2022/08/15 00:27:01;;;;;;;;;16.33;16.00;;;;;25.86;75.94;100294.19;5090745;27;45322;-66
2022/08/15 00:29:29;;;;;;;;;14.50;14.50;;;;;25.78;75.59;100297.47;5105237;27;45249;-66
2022/08/15 00:31:56;;;;;;;;;19.25;17.50;;;;;25.75;75.89;100295.19;5105128;27;45405;-66
2022/08/15 00:34:22;;;;;;;;;15.33;15.33;;;;;25.80;75.60;100300.81;5105198;27;45174;-64
2022/08/15 00:36:49;;;;;;;;;19.50;16.25;;;;;25.76;76.21;100298.81;5105227;27;45345;-66
2022/08/15 00:39:17;;;;;;;;;19.25;17.50;;;;;25.73;76.39;100293.75;5105020;27;46155;-66
2022/08/15 00:41:42;;;;;;;;;18.00;18.00;;;;;25.66;76.11;100293.94;5104920;27;45452;-66
2022/08/15 00:44:21;;;;;;;;;13.25;12.75;;;;;25.57;77.94;100299.06;5104496;27;45195;-66
2022/08/15 00:46:57;;;;;;;;;18.00;16.00;;;;;25.58;76.12;100297.16;5105694;27;45349;-66
2022/08/15 00:49:26;;;;;;;;;17.75;14.75;;;;;25.51;77.25;100290.94;5104905;27;45411;-66
2022/08/15 00:51:58;;;;;;;;;17.00;16.50;;;;;25.40;78.23;100295.53;5104821;27;45212;-66
2022/08/15 00:54:29;;;;;;;;;18.25;14.25;;;;;25.37;76.96;100284.06;5105080;27;45446;-66
2022/08/15 00:57:22;;;;;;;;;18.75;18.75;;;;;25.37;77.07;100290.47;5105448;27;45380;-66
2022/08/15 00:59:53;;;;;;;;;10.50;8.50;;;;;25.32;76.37;100290.41;5098267;27;46948;-64
2022/08/15 01:02:23;;;;;;;;;23.50;19.75;;;;;25.31;77.96;100299.84;5104566;27;45265;-64
2022/08/15 01:04:48;;;;;;;;;16.00;15.00;;;;;25.28;76.93;100280.06;5104878;27;45242;-64
2022/08/15 01:07:14;;;;;;;;;19.00;19.00;;;;;25.24;77.65;100285.28;5104803;27;45298;-66
2022/08/15 01:09:40;;;;;;;;;18.00;15.50;;;;;25.23;77.69;100286.38;5095971;27;45353;-66
2022/08/15 01:12:21;;;;;;;;;17.33;15.67;;;;;25.17;76.24;100287.38;5083950;28;45498;-66
2022/08/15 01:14:51;;;;;;;;;19.00;19.00;;;;;25.17;77.65;100295.72;5066106;28;45470;-66
2022/08/15 01:17:18;;;;;;;;;18.25;16.75;;;;;25.11;78.25;100292.03;5084825;27;45356;-65
2022/08/15 01:19:52;;;;;;;;;17.00;16.25;;;;;25.12;77.58;100292.88;5092502;27;46323;-66
2022/08/15 01:22:27;;;;;;;;;17.50;16.75;;;;;25.12;79.28;100292.88;5085066;27;45409;-66
2022/08/15 01:25:03;;;;;;;;;14.50;14.50;;;;;24.91;78.92;100288.09;5093211;27;45445;-66
2022/08/15 01:27:34;;;;;;;;;24.50;20.25;;;;;24.72;79.13;100277.19;5092384;27;45272;-66
2022/08/15 01:30:01;;;;;;;;;18.25;15.75;;;;;24.77;79.87;100287.53;5103925;27;46287;-66
2022/08/15 01:32:27;;;;;;;;;18.00;17.75;;;;;24.72;79.75;100291.09;5104184;27;45751;-66
2022/08/15 01:34:52;;;;;;;;;19.00;16.25;;;;;24.74;80.30;100286.13;5104356;27;45443;-66
2022/08/15 01:37:19;;;;;;;;;15.75;14.75;;;;;24.83;78.54;100292.13;5104573;27;45390;-66
2022/08/15 01:40:00;;;;;;;;;20.25;19.75;;;;;24.86;77.56;100286.03;5085905;27;47111;-66
2022/08/15 01:42:31;;;;;;;;;24.00;22.00;;;;;24.89;79.17;100284.69;5104025;27;45339;-66
2022/08/15 01:45:03;;;;;;;;;23.00;21.00;;;;;24.93;78.50;100288.66;5104290;27;45254;-66
2022/08/15 01:47:36;;;;;;;;;21.50;19.75;;;;;24.91;77.91;100288.09;5104577;27;45322;-66
2022/08/15 01:50:15;;;;;;;;;23.25;20.25;;;;;24.86;77.14;100286.03;5104169;27;47041;-66
2022/08/15 01:52:51;;;;;;;;;19.75;19.75;;;;;24.81;77.85;100277.63;5103788;27;45565;-66
2022/08/15 01:55:20;;;;;;;;;15.50;15.25;;;;;24.78;76.70;100281.75;5103803;27;45160;-66
2022/08/15 01:57:46;;;;;;;;;20.00;18.25;;;;;24.82;77.37;100270.97;5103725;27;45598;-66
2022/08/15 02:00:14;;;;;;;;;23.50;19.00;;;;;24.81;77.49;100281.25;5103938;27;45295;-66
2022/08/15 02:02:41;;;;;;;;;19.00;19.00;;;;;24.74;77.24;100269.47;5103687;27;45329;-64
2022/08/15 02:05:07;;;;;;;;;21.50;18.50;;;;;24.74;78.22;100272.25;5103685;27;45223;-64
2022/08/15 02:07:32;;;;;;;;;16.25;16.25;;;;;24.71;77.64;100269.09;5103980;27;45238;-64
2022/08/15 02:09:58;;;;;;;;;19.50;16.75;;;;;24.71;77.26;100275.50;5093161;27;45370;-64
2022/08/15 02:12:28;;;;;;;;;18.50;18.50;;;;;24.67;76.88;100266.00;5083241;28;45215;-64
2022/08/15 02:14:54;;;;;;;;;24.00;21.50;;;;;24.68;77.94;100269.63;5083527;28;45323;-66
2022/08/15 02:17:19;;;;;;;;;22.75;21.50;;;;;24.67;78.83;100273.50;5083600;27;45275;-67
2022/08/15 02:19:48;;;;;;;;;18.50;18.50;;;;;24.60;78.56;100272.81;5083195;28;45709;-64
2022/08/15 02:22:15;;;;;;;;;25.75;21.75;;;;;24.59;79.47;100271.13;5082972;27;45251;-64
2022/08/15 02:24:40;;;;;;;;;19.50;19.50;;;;;24.47;80.42;100253.72;5085230;27;45255;-64
2022/08/15 02:27:06;;;;;;;;;19.75;19.75;;;;;24.44;79.52;100257.84;5072023;27;45238;-64
2022/08/15 02:29:32;;;;;;;;;21.50;19.50;;;;;24.48;79.77;100259.00;5091625;27;45496;-64
2022/08/15 02:32:04;;;;;;;;;22.00;20.00;;;;;24.41;80.91;100261.09;5083049;28;45428;-64
2022/08/15 02:34:34;;;;;;;;;19.75;19.00;;;;;24.41;79.81;100263.88;5083421;28;45245;-64
2022/08/15 02:37:00;;;;;;;;;22.25;21.75;;;;;24.45;79.76;100267.84;5083109;27;45342;-64
2022/08/15 02:39:25;;;;;;;;;20.00;18.75;;;;;24.56;78.01;100258.59;5082829;28;45286;-64
2022/08/15 02:41:51;;;;;;;;;19.50;18.25;;;;;24.34;79.37;100241.81;5084510;27;45360;-64
2022/08/15 02:44:20;;;;;;;;;21.25;20.75;;;;;24.33;80.90;100255.94;5090710;27;45267;-64
2022/08/15 02:46:45;;;;;;;;;27.00;23.00;;;;;24.21;80.94;100246.84;5083461;27;45383;-64
2022/08/15 02:49:11;;;;;;;;;23.50;23.50;;;;;24.13;80.57;100252.78;5082757;28;45180;-64
2022/08/15 02:51:40;;;;;;;;;19.50;19.00;;;;;24.14;80.56;100255.31;5082541;27;45376;-64
2022/08/15 02:54:06;;;;;;;;;19.75;19.75;;;;;24.19;80.26;100255.41;5081603;27;45456;-64
2022/08/15 02:56:33;;;;;;;;;15.25;15.25;;;;;24.18;80.02;100244.56;5083487;28;45153;-64
2022/08/15 02:58:58;;;;;;;;;21.25;21.25;;;;;24.28;79.58;100242.00;5082618;28;46182;-64
2022/08/15 03:01:26;;;;;;;;;20.25;18.75;;;;;24.37;80.18;100244.13;5082637;27;45416;-64
2022/08/15 03:03:53;;;;;;;;;19.25;16.00;;;;;24.37;78.85;100243.25;5083000;27;45354;-64
2022/08/15 03:06:22;;;;;;;;;15.67;15.67;;;;;24.41;77.40;100236.09;5083031;28;45584;-64
2022/08/15 03:08:48;;;;;;;;;19.00;18.50;;;;;24.44;77.60;100243.94;5087254;27;45979;-64
2022/08/15 03:11:14;;;;;;;;;17.50;17.50;;;;;24.44;77.00;100243.94;5085869;27;45164;-64
2022/08/15 03:13:40;;;;;;;;;20.75;18.75;;;;;24.42;79.50;100246.13;5086251;27;45165;-64
2022/08/15 03:16:07;;;;;;;;;22.50;18.25;;;;;24.33;80.03;100245.69;5085427;28;45564;-64
2022/08/15 03:18:34;;;;;;;;;22.00;18.75;;;;;24.36;80.44;100239.66;5084205;27;47478;-64
2022/08/15 03:21:02;;;;;;;;;21.50;18.25;;;;;24.35;78.87;100239.91;5085746;27;45284;-64
2022/08/15 03:23:32;;;;;;;;;19.00;17.00;;;;;24.35;78.80;100237.13;5085929;27;45310;-64
2022/08/15 03:25:59;;;;;;;;;19.50;18.00;;;;;24.33;78.19;100239.28;5089783;27;45545;-64
2022/08/15 03:28:34;;;;;;;;;21.67;20.67;;;;;24.30;78.56;100229.56;5101945;27;45433;-64
2022/08/15 03:31:03;;;;;;;;;18.67;18.33;;;;;24.37;78.73;100234.94;5106280;27;45285;-64
2022/08/15 03:33:31;;;;;;;;;20.00;18.00;;;;;24.36;79.21;100236.88;5106282;27;45234;-64
2022/08/15 03:35:58;;;;;;;;;15.50;15.50;;;;;24.22;78.73;100231.88;5106547;27;45420;-64
2022/08/15 03:38:23;;;;;;;;;23.75;22.25;;;;;24.13;78.99;100238.91;5105946;27;45385;-64
2022/08/15 03:40:51;;;;;;;;;19.67;18.67;;;;;24.24;78.65;100232.50;5105952;27;45337;-64
2022/08/15 03:43:27;;;;;;;;;19.50;18.75;;;;;24.37;77.33;100240.50;5106142;27;45325;-64
2022/08/15 03:46:05;;;;;;;;;18.33;16.67;;;;;24.41;76.76;100242.50;5088148;27;45625;-64
2022/08/15 03:48:33;;;;;;;;;23.00;19.00;;;;;24.43;76.03;100239.47;5105931;27;45374;-64
2022/08/15 03:51:01;;;;;;;;;18.75;18.25;;;;;24.46;76.41;100238.16;5104157;27;45275;-64
2022/08/15 03:53:29;;;;;;;;;16.67;16.67;;;;;24.42;75.82;100237.78;5105699;27;45278;-64
2022/08/15 03:55:56;;;;;;;;;18.75;16.25;;;;;24.43;77.37;100225.59;5106304;27;45271;-64
2022/08/15 03:58:22;;;;;;;;;21.25;20.00;;;;;24.35;76.58;100223.22;5105746;27;45295;-65
2022/08/15 04:00:48;;;;;;;;;16.50;15.50;;;;;24.39;75.75;100227.22;5105557;27;45337;-64
2022/08/15 04:03:19;;;;;;;;;21.25;18.75;;;;;24.41;77.47;100231.41;5105880;27;45259;-64
2022/08/15 04:05:52;;;;;;;;;21.50;19.75;;;;;24.29;77.07;100229.78;5105931;27;45268;-65
2022/08/15 04:08:20;;;;;;;;;20.25;18.25;;;;;24.31;77.06;100225.69;5105681;27;45409;-64
2022/08/15 04:10:49;;;;;;;;;18.75;18.50;;;;;24.26;76.88;100217.25;5087516;27;45282;-64
2022/08/15 04:13:15;;;;;;;;;21.00;21.00;;;;;24.28;77.48;100219.78;5084679;28;45333;-64
2022/08/15 04:15:41;;;;;;;;;19.50;17.00;;;;;24.22;77.02;100215.22;5085392;27;45280;-64
2022/08/15 04:18:07;;;;;;;;;17.00;15.50;;;;;24.25;76.44;100204.47;5094000;27;46153;-64
2022/08/15 04:20:32;;;;;;;;;16.67;16.33;;;;;24.24;76.76;100207.50;5083397;27;45247;-64
2022/08/15 04:22:58;;;;;;;;;18.67;17.33;;;;;24.16;77.21;100205.09;5085091;28;45226;-64
2022/08/15 04:25:31;;;;;;;;;17.00;14.67;;;;;24.15;77.02;100208.97;5088964;27;45256;-64
2022/08/15 04:27:59;;;;;;;;;23.00;18.67;;;;;24.10;79.49;100206.13;5097043;27;46390;-65
2022/08/15 04:30:28;;;;;;;;;16.50;16.25;;;;;24.09;76.92;100212.75;5067445;28;45285;-64
2022/08/15 04:32:56;;;;;;;;;33.50;30.50;;;;;24.04;78.50;100214.31;5097887;27;45323;-64
2022/08/15 04:35:22;;;;;;;;;15.75;15.00;;;;;24.04;78.17;100206.00;5105224;27;45405;-65
2022/08/15 04:37:47;;;;;;;;;21.75;19.50;;;;;24.07;78.87;100213.00;5105162;27;45322;-64
2022/08/15 04:40:14;;;;;;;;;18.50;16.50;;;;;24.01;77.06;100214.84;5086258;27;45249;-64
2022/08/15 04:42:58;;;;;;;;;19.25;19.25;;;;;24.06;77.35;100222.41;5105226;27;45325;-64
2022/08/15 04:45:25;;;;;;;;;23.75;19.75;;;;;24.03;78.16;100222.94;5105585;27;45258;-64
2022/08/15 04:47:51;;;;;;;;;20.00;19.00;;;;;24.04;75.92;100216.25;5086472;27;48077;-64
2022/08/15 04:50:16;;;;;;;;;21.50;18.75;;;;;24.02;77.12;100210.97;5104289;27;45443;-64
2022/08/15 04:52:51;;;;;;;;;15.00;15.00;;;;;24.03;75.43;100211.81;5104676;27;45439;-64
2022/08/15 04:55:19;;;;;;;;;20.50;16.25;;;;;24.05;75.46;100207.69;5105395;27;45310;-64
2022/08/15 04:57:44;;;;;;;;;17.25;16.25;;;;;23.99;75.38;100207.84;5104492;27;46072;-64
2022/08/15 05:00:12;;;;;;;;;18.50;17.00;;;;;23.98;75.67;100209.78;5086207;27;45341;-64
2022/08/15 05:02:38;;;;;;;;;18.00;15.00;;;;;24.05;75.32;100204.06;5104782;27;45252;-64
2022/08/15 05:05:06;;;;;;;;;19.50;18.25;;;;;24.04;76.37;100197.66;5105313;27;45231;-64
2022/08/15 05:07:32;;;;;;;;;19.75;19.75;;;;;24.06;77.40;100211.31;5104162;27;47106;-64
2022/08/15 05:09:59;;;;;;;;;19.25;17.50;;;;;24.10;78.51;100197.78;5094669;27;45365;-65
2022/08/15 05:12:26;;;;;;;;;18.75;17.50;;;;;24.02;79.23;100188.78;5084202;28;45316;-64
2022/08/15 05:14:51;;;;;;;;;17.50;15.50;;;;;24.01;78.50;100189.03;5084600;27;45268;-64
2022/08/15 05:17:16;;;;;;;;;17.50;17.50;;;;;24.03;78.23;100189.63;5083799;28;46047;-64
2022/08/15 05:19:42;;;;;;;;;18.75;16.75;;;;;24.12;77.88;100190.03;5084050;28;45289;-64
2022/08/15 05:22:08;;;;;;;;;20.25;16.25;;;;;24.18;77.64;100183.50;5083843;28;45255;-64
2022/08/15 05:24:35;;;;;;;;;17.25;17.25;;;;;24.17;79.14;100184.59;5067404;27;45571;-64
2022/08/15 05:27:00;;;;;;;;;17.50;15.75;;;;;24.09;78.87;100183.06;5092137;27;46922;-65
2022/08/15 05:29:26;;;;;;;;;20.25;17.25;;;;;24.09;77.19;100183.06;5104368;27;45230;-66
2022/08/15 05:31:52;;;;;;;;;19.50;18.75;;;;;24.13;77.63;100181.47;5104242;27;45414;-65
2022/08/15 05:34:19;;;;;;;;;20.50;18.00;;;;;24.17;77.08;100182.66;5104858;27;45553;-65
2022/08/15 05:36:45;;;;;;;;;19.75;19.25;;;;;24.24;77.19;100182.53;5103868;27;45424;-65
2022/08/15 05:39:19;;;;;;;;;19.75;18.50;;;;;24.57;76.63;100179.72;5104130;27;45269;-65
2022/08/15 05:42:13;;;;;;;;;19.50;19.25;;;;;24.75;74.04;100182.25;5104327;27;45379;-64
2022/08/15 05:45:12;;;;;;;;;18.75;16.50;;;;;24.72;74.34;100181.91;5070912;27;45608;-65
2022/08/15 05:47:45;;;;;;;;;22.50;20.25;;;;;24.73;74.38;100178.03;5103583;27;45391;-65
